Time;durP1;ratioP1;P1;durP2;ratioP2;P2;SDS_P1;SDS_P2;PMS_P1;PMS_P2;Temp;Humidity;BMP_temperature;BMP_pressure;BME280_temperature;BME280_humidity;BME280_pressure;Samples;Min_cycle;Max_cycle;Signal;HPM_P1;HPM_P2
2022/09/29 00:00:25;;;;;;;3.92;1.75;;;16.40;69.40;;;;;;10368016;28;20050;-58
2022/09/29 00:05:27;;;;;;;3.80;1.40;;;16.40;69.30;;;;;;10367458;28;20080;-59
2022/09/29 00:10:27;;;;;;;3.05;1.52;;;16.50;67.70;;;;;;10367633;28;20024;-58
2022/09/29 00:15:28;;;;;;;3.53;1.20;;;16.50;66.60;;;;;;10369062;28;20060;-58
2022/09/29 00:20:29;;;;;;;3.30;1.45;;;16.60;66.50;;;;;;10367240;28;20037;-59
2022/09/29 00:25:30;;;;;;;3.95;1.15;;;16.50;67.30;;;;;;10369088;28;20116;-58
2022/09/29 00:30:30;;;;;;;2.78;1.65;;;16.40;67.70;;;;;;10366938;28;20026;-59
2022/09/29 00:35:31;;;;;;;2.90;1.60;;;16.40;67.90;;;;;;10372806;28;20144;-59
2022/09/29 00:40:33;;;;;;;2.88;1.95;;;16.40;68.10;;;;;;10371781;28;20081;-58
2022/09/29 00:45:34;;;;;;;3.00;1.35;;;16.40;68.30;;;;;;10368252;28;20725;-58
2022/09/29 00:50:50;;;;;;;2.40;1.23;;;16.40;68.40;;;;;;10370982;28;20072;-58
2022/09/29 00:56:12;;;;;;;2.35;1.58;;;16.40;68.50;;;;;;10366626;28;20053;-59
2022/09/29 01:01:13;;;;;;;2.50;1.33;;;16.40;68.30;;;;;;10366458;28;20026;-58
2022/09/29 01:06:25;;;;;;;2.88;1.33;;;16.30;68.40;;;;;;10379425;28;20034;-60
2022/09/29 01:11:28;;;;;;;2.85;1.30;;;16.30;68.50;;;;;;10359117;28;20465;-57
2022/09/29 01:16:33;;;;;;;1.70;1.10;;;16.30;68.40;;;;;;10378225;28;20053;-58
2022/09/29 01:22:11;;;;;;;2.13;1.23;;;16.40;68.40;;;;;;10364427;28;20026;-59
2022/09/29 01:27:42;;;;;;;2.53;1.90;;;16.30;68.30;;;;;;10373546;28;20083;-58
2022/09/29 01:33:18;;;;;;;2.55;1.30;;;16.30;68.50;;;;;;10364864;28;20751;-58
2022/09/29 01:39:00;;;;;;;3.95;1.35;;;16.30;68.40;;;;;;10322730;28;20141;-59
2022/09/29 01:44:22;;;;;;;3.08;1.55;;;16.30;68.60;;;;;;10365542;28;20120;-58
2022/09/29 01:49:26;;;;;;;2.88;1.48;;;16.30;68.60;;;;;;10365472;28;20037;-58
2022/09/29 01:55:11;;;;;;;2.08;0.98;;;16.30;68.60;;;;;;10364679;28;20072;-58
2022/09/29 02:00:16;;;;;;;2.20;1.13;;;16.30;68.70;;;;;;10319880;28;20037;-58
2022/09/29 02:05:42;;;;;;;1.42;1.00;;;16.20;68.60;;;;;;10362476;28;20092;-58
2022/09/29 02:11:01;;;;;;;1.35;1.00;;;16.20;68.60;;;;;;10363974;28;20036;-59
2022/09/29 02:16:02;;;;;;;1.20;1.10;;;16.30;68.60;;;;;;10347748;28;20032;-58
2022/09/29 02:21:03;;;;;;;1.90;0.90;;;16.20;68.60;;;;;;10362830;28;20100;-58
2022/09/29 02:26:04;;;;;;;2.30;1.27;;;16.20;68.60;;;;;;10374698;28;20145;-58
2022/09/29 02:31:06;;;;;;;3.33;1.67;;;16.20;68.70;;;;;;10363962;28;20053;-58
2022/09/29 02:36:55;;;;;;;2.08;1.20;;;16.20;67.10;;;;;;10364056;28;20025;-58
2022/09/29 02:42:07;;;;;;;1.83;1.25;;;16.30;66.10;;;;;;10352051;28;20108;-59
2022/09/29 02:47:54;;;;;;;2.25;1.17;;;16.30;65.70;;;;;;10362340;28;20026;-58
2022/09/29 02:53:03;;;;;;;2.13;1.00;;;16.30;66.50;;;;;;10363719;28;20104;-58
2022/09/29 02:58:19;;;;;;;1.33;1.20;;;16.20;66.90;;;;;;10378907;28;20032;-58
2022/09/29 03:03:20;;;;;;;2.13;0.95;;;16.20;67.30;;;;;;10375406;28;20029;-62
2022/09/29 03:08:21;;;;;;;1.50;0.90;;;16.20;67.50;;;;;;10363317;28;20617;-58
2022/09/29 03:13:21;;;;;;;2.60;1.38;;;16.20;67.60;;;;;;10362170;28;20107;-58
2022/09/29 03:18:23;;;;;;;2.17;1.00;;;16.20;67.60;;;;;;10362143;28;20050;-58
2022/09/29 03:23:24;;;;;;;1.30;0.82;;;16.10;67.50;;;;;;10361865;28;20064;-59
2022/09/29 03:28:24;;;;;;;1.40;1.02;;;16.10;67.50;;;;;;10388050;28;20125;-58
2022/09/29 03:33:25;;;;;;;1.33;0.77;;;16.10;67.50;;;;;;10361957;28;20053;-58
2022/09/29 03:38:25;;;;;;;2.70;1.13;;;16.10;67.70;;;;;;10362074;28;20127;-58
2022/09/29 03:43:26;;;;;;;2.38;1.10;;;16.10;67.70;;;;;;10365610;28;20479;-58
2022/09/29 03:48:30;;;;;;;2.85;1.02;;;16.10;67.70;;;;;;10369882;28;20064;-58
2022/09/29 03:53:34;;;;;;;2.42;1.20;;;16.10;67.80;;;;;;10370045;28;20018;-58
2022/09/29 03:58:34;;;;;;;2.53;1.63;;;16.10;67.70;;;;;;10368110;28;20022;-59
2022/09/29 04:03:35;;;;;;;3.42;1.33;;;16.10;67.80;;;;;;10351735;28;20014;-58
2022/09/29 04:08:36;;;;;;;2.55;1.40;;;16.10;67.90;;;;;;10367646;28;20014;-58
2022/09/29 04:13:37;;;;;;;5.03;1.88;;;16.10;67.80;;;;;;10369142;28;20022;-56
2022/09/29 04:18:37;;;;;;;2.15;1.35;;;16.20;68.40;;;;;;10366190;28;21043;-57
2022/09/29 04:23:38;;;;;;;3.75;1.90;;;16.20;68.50;;;;;;10367063;28;20113;-57
2022/09/29 04:28:39;;;;;;;3.97;2.28;;;16.20;68.60;;;;;;10368172;28;20026;-57
2022/09/29 04:33:40;;;;;;;4.78;2.25;;;16.10;69.20;;;;;;10365923;28;20041;-56
2022/09/29 04:38:40;;;;;;;3.67;2.85;;;16.10;70.30;;;;;;10367714;28;20374;-57
2022/09/29 04:43:41;;;;;;;3.17;2.25;;;16.10;70.20;;;;;;10366720;28;20069;-57
2022/09/29 04:48:42;;;;;;;4.20;2.00;;;16.20;70.30;;;;;;10395641;28;20604;-57
2022/09/29 04:53:43;;;;;;;5.88;2.08;;;16.20;69.60;;;;;;10378332;28;20353;-56
2022/09/29 04:58:43;;;;;;;5.57;2.05;;;16.30;70.30;;;;;;10365875;28;20080;-56
2022/09/29 05:03:44;;;;;;;5.00;1.90;;;16.20;67.60;;;;;;10366711;28;20129;-56
2022/09/29 05:08:44;;;;;;;7.82;2.83;;;16.20;66.90;;;;;;10365340;28;20677;-57
2022/09/29 05:13:49;;;;;;;6.70;2.90;;;16.30;69.10;;;;;;10366805;28;20109;-56
2022/09/29 05:18:50;;;;;;;9.98;2.67;;;16.30;69.30;;;;;;10391170;28;20100;-57
2022/09/29 05:23:51;;;;;;;6.30;2.50;;;16.20;68.50;;;;;;10378286;28;20079;-57
2022/09/29 05:28:52;;;;;;;9.75;2.45;;;16.10;68.90;;;;;;10364865;28;20080;-58
2022/09/29 05:33:55;;;;;;;9.57;3.28;;;16.10;69.00;;;;;;10379019;28;20627;-58
2022/09/29 05:38:56;;;;;;;15.73;2.97;;;16.10;69.30;;;;;;10360803;28;20057;-56
2022/09/29 05:43:57;;;;;;;13.95;3.33;;;16.10;69.30;;;;;;10359429;28;20069;-57
2022/09/29 05:48:58;;;;;;;7.28;3.08;;;16.10;69.40;;;;;;10361684;28;20014;-58
2022/09/29 05:54:00;;;;;;;15.88;3.67;;;16.10;69.70;;;;;;10360546;28;20064;-57
2022/09/29 05:59:01;;;;;;;8.00;2.53;;;16.00;69.90;;;;;;10361417;28;20029;-57
2022/09/29 06:04:02;;;;;;;11.90;3.53;;;16.00;70.00;;;;;;10360790;28;20177;-60
2022/09/29 06:09:03;;;;;;;10.32;3.28;;;16.10;70.10;;;;;;10372282;28;20053;-58
2022/09/29 06:14:03;;;;;;;11.68;3.15;;;16.10;69.90;;;;;;10362963;28;20614;-58
2022/09/29 06:19:04;;;;;;;11.60;2.95;;;16.10;69.90;;;;;;10373431;28;20030;-58
2022/09/29 06:24:06;;;;;;;7.30;2.50;;;16.10;69.80;;;;;;10343406;28;20091;-57
2022/09/29 06:29:07;;;;;;;11.23;3.95;;;16.00;69.60;;;;;;10353732;28;20032;-58
2022/09/29 06:34:09;;;;;;;8.90;2.85;;;16.00;69.60;;;;;;10367632;28;20026;-57
2022/09/29 06:39:12;;;;;;;6.60;2.97;;;15.90;69.60;;;;;;10358203;28;20115;-58
2022/09/29 06:44:14;;;;;;;7.18;3.15;;;16.00;69.50;;;;;;10358839;28;20056;-58
2022/09/29 06:49:15;;;;;;;6.35;2.72;;;16.00;69.60;;;;;;10356728;28;20014;-58
2022/09/29 06:54:19;;;;;;;7.70;2.45;;;15.90;69.70;;;;;;10359249;28;20610;-58
2022/09/29 06:59:20;;;;;;;5.28;2.40;;;16.00;69.00;;;;;;10357725;28;20033;-57
2022/09/29 07:04:21;;;;;;;4.65;2.30;;;16.00;67.60;;;;;;10359484;28;20030;-58
2022/09/29 07:09:22;;;;;;;3.97;1.85;;;16.10;66.60;;;;;;10372172;28;20076;-58
2022/09/29 07:14:23;;;;;;;5.40;2.05;;;16.10;65.90;;;;;;10358916;28;20077;-58
2022/09/29 07:19:24;;;;;;;8.13;2.28;;;16.10;66.30;;;;;;10364776;28;20022;-58
2022/09/29 07:24:25;;;;;;;6.55;3.15;;;16.00;67.00;;;;;;10380584;28;20022;-58
2022/09/29 07:29:26;;;;;;;4.75;2.78;;;16.00;67.40;;;;;;10352447;28;20100;-58
2022/09/29 07:34:26;;;;;;;3.70;2.47;;;15.90;67.80;;;;;;10368225;28;20026;-58
2022/09/29 07:39:27;;;;;;;5.18;3.10;;;16.00;68.00;;;;;;10366607;28;20042;-58
2022/09/29 07:44:30;;;;;;;3.72;2.58;;;15.90;68.00;;;;;;10381518;28;20121;-57
2022/09/29 07:49:31;;;;;;;4.85;2.78;;;15.90;68.20;;;;;;10368361;28;20016;-57
2022/09/29 07:54:32;;;;;;;4.07;2.70;;;15.90;68.20;;;;;;10366123;28;20084;-57
2022/09/29 07:59:32;;;;;;;6.05;2.88;;;15.90;68.20;;;;;;10366154;28;20018;-58
2022/09/29 08:04:33;;;;;;;5.35;2.67;;;15.90;68.20;;;;;;10366281;28;20119;-58
2022/09/29 08:09:34;;;;;;;6.43;2.67;;;15.90;68.40;;;;;;10366754;28;20072;-58
2022/09/29 08:14:36;;;;;;;4.25;2.22;;;15.90;68.50;;;;;;10379766;28;20041;-58
2022/09/29 08:19:37;;;;;;;3.97;2.40;;;15.90;68.70;;;;;;10364801;28;20508;-59
2022/09/29 08:24:39;;;;;;;5.18;2.72;;;15.80;68.60;;;;;;10365474;28;20032;-58
2022/09/29 08:29:41;;;;;;;4.07;2.42;;;15.90;68.80;;;;;;10366648;28;20037;-59
2022/09/29 08:34:41;;;;;;;4.78;2.85;;;15.90;68.80;;;;;;10364813;28;20021;-58
2022/09/29 08:39:42;;;;;;;4.22;2.47;;;15.90;68.80;;;;;;10365474;28;20081;-58
2022/09/29 08:44:50;;;;;;;5.03;3.05;;;15.90;68.80;;;;;;10380698;28;20133;-58
2022/09/29 08:49:59;;;;;;;4.72;3.58;;;15.90;68.90;;;;;;10365397;28;20018;-58
2022/09/29 08:55:16;;;;;;;4.93;3.10;;;15.90;68.90;;;;;;10377101;28;20080;-58
2022/09/29 09:00:18;;;;;;;5.50;3.60;;;15.80;68.80;;;;;;10372329;28;20032;-58
2022/09/29 09:06:19;;;;;;;7.50;3.03;;;15.90;69.10;;;;;;10368872;28;20037;-59
2022/09/29 09:11:54;;;;;;;4.35;2.90;;;15.80;68.90;;;;;;10365006;28;20041;-59
2022/09/29 09:17:33;;;;;;;4.65;3.25;;;15.80;68.00;;;;;;10363077;28;20022;-58
2022/09/29 09:22:57;;;;;;;5.32;3.20;;;15.90;66.80;;;;;;10363368;28;20048;-58
2022/09/29 09:28:26;;;;;;;4.72;2.80;;;16.00;65.90;;;;;;10365212;28;20045;-58
2022/09/29 09:33:36;;;;;;;5.60;4.03;;;16.00;66.10;;;;;;10378250;28;20382;-58
2022/09/29 09:38:47;;;;;;;5.50;3.35;;;15.90;67.10;;;;;;10365982;28;20061;-57
2022/09/29 09:44:08;;;;;;;7.20;3.88;;;15.90;67.60;;;;;;10377208;28;20045;-58
2022/09/29 09:49:36;;;;;;;5.28;3.35;;;15.90;67.80;;;;;;10367499;28;20050;-58
2022/09/29 09:54:48;;;;;;;5.93;3.38;;;15.90;68.00;;;;;;10350533;28;20014;-58
2022/09/29 10:00:20;;;;;;;5.00;3.17;;;15.90;68.30;;;;;;10365838;28;20052;-58
2022/09/29 10:05:33;;;;;;;4.75;3.47;;;15.90;68.40;;;;;;10366180;28;20040;-58
2022/09/29 10:10:33;;;;;;;5.15;3.53;;;16.00;68.50;;;;;;10361814;28;20084;-59
2022/09/29 10:15:57;;;;;;;6.22;3.28;;;16.00;68.50;;;;;;10361781;28;20462;-58
2022/09/29 10:20:58;;;;;;;6.03;4.15;;;16.00;68.40;;;;;;10356757;28;20034;-58
2022/09/29 10:26:15;;;;;;;5.30;3.65;;;16.10;68.50;;;;;;10361828;28;20037;-58
2022/09/29 10:31:28;;;;;;;5.18;3.63;;;16.20;68.50;;;;;;10362186;28;20071;-58
2022/09/29 10:36:59;;;;;;;5.28;3.60;;;16.20;68.60;;;;;;10360740;28;20049;-58
2022/09/29 10:42:00;;;;;;;5.55;3.75;;;16.20;68.50;;;;;;10360549;28;20062;-58
2022/09/29 10:47:13;;;;;;;6.18;3.90;;;16.20;68.50;;;;;;10360045;28;20088;-58
2022/09/29 10:52:26;;;;;;;8.07;3.70;;;16.30;68.60;;;;;;10364056;28;20080;-58
2022/09/29 10:57:30;;;;;;;6.13;3.97;;;16.30;68.50;;;;;;10368875;28;20437;-58
2022/09/29 11:02:35;;;;;;;5.10;3.95;;;16.40;68.60;;;;;;10368805;28;20105;-58
2022/09/29 11:07:45;;;;;;;5.35;3.53;;;16.40;68.60;;;;;;10368559;28;20033;-58
2022/09/29 11:12:47;;;;;;;5.72;3.60;;;16.40;68.60;;;;;;10369224;28;20022;-59
2022/09/29 11:17:50;;;;;;;4.88;3.70;;;16.40;68.60;;;;;;10368030;28;20018;-58
2022/09/29 11:23:17;;;;;;;5.07;3.78;;;16.50;68.60;;;;;;10368016;28;20101;-57
2022/09/29 11:28:59;;;;;;;5.47;3.47;;;16.50;68.70;;;;;;10369453;28;20057;-58
2022/09/29 11:34:47;;;;;;;5.82;3.75;;;16.50;68.60;;;;;;10397690;28;20413;-58
2022/09/29 11:40:11;;;;;;;5.15;3.78;;;16.50;68.70;;;;;;10330237;28;20046;-58
2022/09/29 11:45:17;;;;;;;4.78;3.13;;;16.50;68.70;;;;;;10366828;28;20030;-58
2022/09/29 11:50:53;;;;;;;4.10;2.83;;;16.50;68.80;;;;;;10367188;28;20029;-58
2022/09/29 11:56:17;;;;;;;4.95;3.30;;;16.60;68.80;;;;;;10367258;28;20046;-58
2022/09/29 12:01:45;;;;;;;5.13;3.22;;;16.60;68.90;;;;;;10366598;28;20053;-57
2022/09/29 12:07:12;;;;;;;4.35;3.03;;;16.50;69.10;;;;;;10367772;28;20041;-58
2022/09/29 12:12:44;;;;;;;5.05;3.55;;;16.60;69.20;;;;;;10366492;28;20014;-58
2022/09/29 12:17:52;;;;;;;3.88;3.22;;;16.60;69.10;;;;;;10356343;28;20022;-58
2022/09/29 12:22:56;;;;;;;4.60;2.92;;;16.60;69.20;;;;;;10365597;28;20485;-58
2022/09/29 12:28:10;;;;;;;5.22;3.80;;;16.60;69.40;;;;;;10366542;28;20029;-58
2022/09/29 12:33:24;;;;;;;4.03;3.05;;;16.60;69.20;;;;;;10382146;28;20018;-58
2022/09/29 12:38:42;;;;;;;4.72;3.03;;;16.60;69.20;;;;;;10378227;28;20546;-58
2022/09/29 12:43:49;;;;;;;3.83;2.97;;;16.60;69.20;;;;;;10377099;28;20095;-59
2022/09/29 12:49:12;;;;;;;4.38;3.25;;;16.60;69.20;;;;;;10363910;28;20022;-58
2022/09/29 12:54:53;;;;;;;5.55;3.10;;;16.60;69.20;;;;;;10365182;28;20463;-59
2022/09/29 13:00:14;;;;;;;4.30;2.95;;;16.60;69.20;;;;;;10364405;28;20152;-58
2022/09/29 13:05:46;;;;;;;4.18;3.20;;;16.60;69.20;;;;;;10364553;28;20030;-59
2022/09/29 13:11:02;;;;;;;5.35;3.22;;;16.60;69.40;;;;;;10354380;28;20603;-58
2022/09/29 13:16:37;;;;;;;4.10;2.92;;;16.70;69.40;;;;;;10373592;28;20033;-58
2022/09/29 13:22:00;;;;;;;3.67;2.70;;;16.60;69.50;;;;;;10363160;28;20377;-58
2022/09/29 13:27:38;;;;;;;4.50;3.10;;;16.60;69.40;;;;;;10364867;28;20042;-58
2022/09/29 13:32:46;;;;;;;5.30;3.35;;;16.50;69.50;;;;;;10360807;28;20014;-59
2022/09/29 13:38:05;;;;;;;4.28;2.85;;;16.60;69.70;;;;;;10362924;28;20029;-58
2022/09/29 13:43:33;;;;;;;4.43;2.60;;;16.60;70.20;;;;;;10362793;28;20168;-58
2022/09/29 13:48:35;;;;;;;3.70;2.53;;;16.60;69.60;;;;;;10363387;28;20485;-58
2022/09/29 13:53:36;;;;;;;4.72;3.28;;;16.60;69.60;;;;;;10362467;28;20033;-59
2022/09/29 13:58:43;;;;;;;3.53;2.60;;;16.60;69.60;;;;;;10362559;28;20014;-59
2022/09/29 14:03:44;;;;;;;3.42;2.75;;;16.60;69.60;;;;;;10378050;28;20033;-58
2022/09/29 14:09:03;;;;;;;5.72;2.75;;;16.60;69.70;;;;;;10362037;28;20316;-59
2022/09/29 14:14:32;;;;;;;4.03;2.70;;;16.60;69.70;;;;;;10376089;28;20393;-59
2022/09/29 14:19:54;;;;;;;3.67;2.55;;;16.60;68.80;;;;;;10374464;28;20453;-59
2022/09/29 14:25:10;;;;;;;3.47;2.63;;;16.60;67.60;;;;;;10360778;28;20033;-59
2022/09/29 14:30:16;;;;;;;4.15;2.83;;;16.70;67.20;;;;;;10376319;28;20075;-58
2022/09/29 14:35:29;;;;;;;2.88;2.22;;;16.60;68.00;;;;;;10362779;28;20033;-58
2022/09/29 14:40:31;;;;;;;4.30;2.63;;;16.60;68.30;;;;;;10338062;28;20095;-58
2022/09/29 14:57:33;;;;;;;4.22;2.50;;;16.50;69.40;;;;;;10361260;28;20038;-57
2022/09/29 15:02:37;;;;;;;3.83;2.67;;;16.50;68.90;;;;;;10360112;28;20037;-57
2022/09/29 15:07:41;;;;;;;3.97;2.28;;;16.40;69.10;;;;;;10355045;28;20113;-58
2022/09/29 15:12:48;;;;;;;2.95;1.98;;;16.40;69.10;;;;;;10362312;28;20516;-58
2022/09/29 15:18:02;;;;;;;4.18;2.70;;;16.40;69.20;;;;;;10363438;28;20026;-58
2022/09/29 15:24:03;;;;;;;3.63;2.55;;;16.40;69.10;;;;;;10361913;28;20536;-58
2022/09/29 15:29:10;;;;;;;2.42;1.90;;;16.40;69.20;;;;;;10379544;28;20513;-58
2022/09/29 15:34:20;;;;;;;3.35;2.00;;;16.40;69.30;;;;;;10361782;28;20038;-58
2022/09/29 15:39:43;;;;;;;3.70;2.50;;;16.30;69.30;;;;;;10365650;28;20811;-58
2022/09/29 15:44:57;;;;;;;3.95;2.42;;;16.40;69.20;;;;;;10361529;28;20579;-59
2022/09/29 15:49:58;;;;;;;8.60;2.75;;;16.40;69.80;;;;;;10371845;28;20014;-58
2022/09/29 15:54:59;;;;;;;177.00;75.68;;;16.40;69.70;;;;;;10382266;28;20018;-59
2022/09/29 16:00:02;;;;;;;22.10;10.05;;;16.50;77.10;;;;;;10392910;28;20018;-59
2022/09/29 16:05:18;;;;;;;49.95;9.55;;;16.50;71.30;;;;;;10365521;28;20050;-60
2022/09/29 16:10:26;;;;;;;41.75;9.20;;;16.50;70.40;;;;;;10362805;28;20014;-60
2022/09/29 16:15:39;;;;;;;66.70;36.85;;;16.60;70.40;;;;;;10349154;28;20022;-59
2022/09/29 16:20:42;;;;;;;75.22;53.90;;;16.80;78.40;;;;;;10363662;28;20074;-58
2022/09/29 16:25:43;;;;;;;64.43;43.85;;;17.00;73.80;;;;;;10364033;28;20045;-61
2022/09/29 16:31:16;;;;;;;75.30;37.72;;;16.90;74.20;;;;;;10368709;28;20014;-62
2022/09/29 16:36:20;;;;;;;57.05;37.92;;;17.00;72.40;;;;;;10363253;28;20048;-60
2022/09/29 16:41:39;;;;;;;63.63;37.45;;;17.00;72.60;;;;;;10365804;28;20417;-61
2022/09/29 16:46:50;;;;;;;58.00;33.58;;;16.90;71.60;;;;;;10365813;28;20069;-64
2022/09/29 16:51:53;;;;;;;51.67;33.28;;;16.80;69.50;;;;;;10366354;28;20018;-61
2022/09/29 16:57:29;;;;;;;49.60;30.65;;;16.80;71.90;;;;;;10365873;28;20021;-63
2022/09/29 17:02:30;;;;;;;50.13;30.42;;;16.80;71.80;;;;;;10366392;28;20034;-61
2022/09/29 17:07:31;;;;;;;54.90;30.85;;;16.80;71.60;;;;;;10365383;28;20065;-59
2022/09/29 17:12:32;;;;;;;55.78;30.95;;;16.80;71.60;;;;;;10362931;28;20030;-58
2022/09/29 17:17:34;;;;;;;63.88;31.00;;;16.80;71.30;;;;;;10362526;28;20056;-59
2022/09/29 17:22:35;;;;;;;52.80;29.70;;;16.70;71.60;;;;;;10349367;28;20068;-59
2022/09/29 17:32:57;;;;;;;46.03;28.13;;;16.60;71.50;;;;;;10365204;28;20022;-59
2022/09/29 17:37:58;;;;;;;39.45;25.55;;;16.50;71.50;;;;;;10364158;28;20512;-58
2022/09/29 17:43:00;;;;;;;45.95;25.27;;;16.50;71.90;;;;;;10363151;28;20109;-58
2022/09/29 17:48:02;;;;;;;51.50;25.60;;;16.50;71.30;;;;;;10362119;28;21579;-59
2022/09/29 17:53:04;;;;;;;55.58;26.55;;;16.70;69.50;;;;;;10379998;28;20050;-59
2022/09/29 17:58:04;;;;;;;48.25;22.10;;;16.80;68.40;;;;;;10360413;28;20021;-58
2022/09/29 18:03:08;;;;;;;39.20;21.35;;;16.80;67.70;;;;;;10347283;28;20105;-59
2022/09/29 18:08:20;;;;;;;39.17;22.60;;;16.80;68.10;;;;;;10342752;28;20496;-59
2022/09/29 18:13:23;;;;;;;39.20;20.08;;;16.70;69.00;;;;;;10360491;28;20010;-59
2022/09/29 18:18:25;;;;;;;33.75;18.83;;;16.70;67.90;;;;;;10362175;28;20032;-59
2022/09/29 18:23:25;;;;;;;29.42;17.88;;;16.80;67.10;;;;;;10364421;28;20092;-55
2022/09/29 18:28:26;;;;;;;32.85;18.83;;;16.80;66.40;;;;;;10376164;28;20061;-57
2022/09/29 18:33:27;;;;;;;27.92;17.48;;;16.80;65.90;;;;;;10362637;28;20037;-58
2022/09/29 18:38:28;;;;;;;26.52;15.77;;;16.90;65.50;;;;;;10371056;28;20552;-57
2022/09/29 18:43:29;;;;;;;29.08;16.48;;;16.80;65.60;;;;;;10361411;28;20026;-57
2022/09/29 18:48:30;;;;;;;25.52;15.98;;;16.70;66.60;;;;;;10403584;28;20061;-57
2022/09/29 18:53:32;;;;;;;21.70;15.05;;;16.60;67.20;;;;;;10361292;28;20046;-58
2022/09/29 18:58:32;;;;;;;25.73;15.70;;;16.50;67.50;;;;;;10360945;28;20532;-57
2022/09/29 19:03:33;;;;;;;21.00;14.18;;;16.50;67.90;;;;;;10359795;28;20112;-57
2022/09/29 19:08:34;;;;;;;26.80;14.77;;;16.50;68.00;;;;;;10373764;28;20743;-57
2022/09/29 19:13:35;;;;;;;23.30;14.63;;;16.50;68.20;;;;;;10364649;28;20045;-57
2022/09/29 19:18:36;;;;;;;20.83;13.68;;;16.40;68.20;;;;;;10368136;28;20025;-58
2022/09/29 19:23:38;;;;;;;17.95;12.30;;;16.40;68.40;;;;;;10367818;28;20030;-58
2022/09/29 19:28:39;;;;;;;18.67;12.90;;;16.40;68.40;;;;;;10354748;28;20053;-58
2022/09/29 19:33:42;;;;;;;22.50;13.68;;;16.40;68.40;;;;;;10368392;28;20022;-57
2022/09/29 19:38:43;;;;;;;16.58;11.82;;;16.40;68.50;;;;;;10367748;28;20045;-61
2022/09/29 19:43:45;;;;;;;16.70;11.60;;;16.40;68.60;;;;;;10368039;28;20416;-60
2022/09/29 19:48:46;;;;;;;17.55;10.75;;;16.40;68.60;;;;;;10369056;28;20117;-58
2022/09/29 19:53:46;;;;;;;18.75;13.35;;;16.40;68.50;;;;;;10373960;28;20021;-57
2022/09/29 19:58:49;;;;;;;14.77;10.63;;;16.40;68.60;;;;;;10396627;28;20032;-58
2022/09/29 20:03:50;;;;;;;16.02;9.13;;;16.30;68.60;;;;;;10362673;28;20778;-58
2022/09/29 20:08:51;;;;;;;18.88;10.38;;;16.30;68.70;;;;;;10374841;28;20133;-58
2022/09/29 20:13:52;;;;;;;13.43;10.05;;;16.30;68.70;;;;;;10394191;28;20049;-59
2022/09/29 20:18:52;;;;;;;13.30;8.75;;;16.40;67.30;;;;;;10360749;28;20074;-58
2022/09/29 20:23:53;;;;;;;15.65;8.52;;;16.40;66.40;;;;;;10364126;28;20051;-58
2022/09/29 20:28:54;;;;;;;14.00;8.82;;;16.40;67.00;;;;;;10380985;28;20029;-57
2022/09/29 20:33:54;;;;;;;10.73;7.80;;;16.40;67.50;;;;;;10365072;28;20054;-58
2022/09/29 20:38:55;;;;;;;12.15;8.27;;;16.40;67.60;;;;;;10363454;28;20057;-58
2022/09/29 20:43:57;;;;;;;12.55;7.70;;;16.30;67.70;;;;;;10362622;28;20030;-57
2022/09/29 20:48:58;;;;;;;12.75;7.20;;;16.30;67.80;;;;;;10358293;28;20030;-59
2022/09/29 20:54:00;;;;;;;13.18;7.75;;;16.30;67.80;;;;;;10362255;28;20034;-58
2022/09/29 20:59:01;;;;;;;11.05;6.88;;;16.30;67.90;;;;;;10374663;28;20022;-59
2022/09/29 21:04:07;;;;;;;10.23;7.10;;;16.30;68.00;;;;;;10364430;28;20037;-59
2022/09/29 21:09:12;;;;;;;11.23;7.15;;;16.30;67.90;;;;;;10362258;28;20034;-59
2022/09/29 21:14:20;;;;;;;11.15;6.80;;;16.30;67.90;;;;;;10364262;28;20025;-58
2022/09/29 21:19:25;;;;;;;8.85;6.53;;;16.30;67.90;;;;;;10363214;28;20113;-59
2022/09/29 21:24:26;;;;;;;8.07;6.65;;;16.30;67.90;;;;;;10346197;28;20080;-58
2022/09/29 21:29:27;;;;;;;8.35;5.70;;;16.30;67.90;;;;;;10358380;28;20018;-58
2022/09/29 21:34:28;;;;;;;10.68;6.13;;;16.30;67.80;;;;;;10358610;28;20030;-61
2022/09/29 21:39:29;;;;;;;7.82;5.75;;;16.30;67.80;;;;;;10357420;28;20533;-59
2022/09/29 21:44:29;;;;;;;8.68;5.78;;;16.30;67.80;;;;;;10357795;28;20587;-57
2022/09/29 21:49:30;;;;;;;8.70;5.95;;;16.30;66.50;;;;;;10360312;28;20365;-59
2022/09/29 21:54:32;;;;;;;8.48;5.15;;;16.30;65.90;;;;;;10359796;28;20307;-59
2022/09/29 21:59:33;;;;;;;6.43;4.43;;;16.30;66.70;;;;;;10359876;28;20074;-59
2022/09/29 22:04:34;;;;;;;6.97;4.65;;;16.30;66.90;;;;;;10359416;28;20447;-59
2022/09/29 22:09:34;;;;;;;7.85;5.63;;;16.30;67.00;;;;;;10360671;28;20022;-58
2022/09/29 22:14:35;;;;;;;7.32;4.30;;;16.30;67.00;;;;;;10358981;28;20026;-59
2022/09/29 22:19:36;;;;;;;7.47;4.05;;;16.20;67.00;;;;;;10359082;28;20044;-58
2022/09/29 22:24:36;;;;;;;7.35;4.82;;;16.20;67.00;;;;;;10359632;28;20111;-59
2022/09/29 22:29:37;;;;;;;5.22;3.47;;;16.20;67.10;;;;;;10358802;28;20468;-59
2022/09/29 22:34:38;;;;;;;8.48;4.38;;;16.20;67.20;;;;;;10359499;28;20045;-59
2022/09/29 22:39:39;;;;;;;6.22;4.45;;;16.20;67.10;;;;;;10374219;28;20058;-58
2022/09/29 22:44:39;;;;;;;7.00;3.88;;;16.20;67.10;;;;;;10359624;28;20049;-58
2022/09/29 22:49:40;;;;;;;5.93;4.05;;;16.20;67.00;;;;;;10369886;28;20024;-59
2022/09/29 22:54:41;;;;;;;6.18;3.47;;;16.20;67.10;;;;;;10372707;28;20060;-58
2022/09/29 22:59:41;;;;;;;5.65;3.70;;;16.20;67.20;;;;;;10378633;28;20370;-58
2022/09/29 23:04:42;;;;;;;6.25;3.72;;;16.20;67.20;;;;;;10370754;28;20222;-58
2022/09/29 23:09:43;;;;;;;4.80;3.75;;;16.20;67.00;;;;;;10372492;28;20029;-59
2022/09/29 23:14:43;;;;;;;5.22;3.03;;;16.20;67.20;;;;;;10371801;28;20026;-58
2022/09/29 23:19:44;;;;;;;5.35;3.20;;;16.20;66.80;;;;;;10388233;28;20030;-58
2022/09/29 23:24:45;;;;;;;5.15;4.47;;;16.20;67.10;;;;;;10387804;28;20048;-58
2022/09/29 23:29:46;;;;;;;5.35;3.83;;;16.10;67.10;;;;;;10371529;28;20018;-58
2022/09/29 23:34:46;;;;;;;6.70;4.00;;;16.10;67.00;;;;;;10371330;28;20133;-59
2022/09/29 23:39:47;;;;;;;4.55;3.20;;;16.20;65.70;;;;;;10372840;28;20445;-58
2022/09/29 23:44:48;;;;;;;6.20;3.97;;;16.20;65.60;;;;;;10371987;28;20048;-59
2022/09/29 23:49:49;;;;;;;4.35;2.90;;;16.20;66.20;;;;;;10372405;28;20018;-59
2022/09/29 23:54:49;;;;;;;5.07;3.40;;;16.10;66.30;;;;;;10370275;28;20543;-59
2022/09/29 23:59:50;;;;;;;5.25;3.25;;;16.10;66.40;;;;;;10375692;28;20493;-58
